Terminal Aerodrome Forecast
Issued by NWS Quad Cities IA IL

Home | Current Version | Previous Version | Text Only | Print | Product List | Glossary On
Versions: 1 2 3 4 5 6 7 8 9 10 11 12 13 14
746
FTUS43 KDVN 162330
TAFMLI
TAF
KMLI 162330Z 1700/1724 12005KT P6SM BKN150
     FM170600 19006KT P6SM SCT250
     FM171200 22010KT P6SM SCT250=

USA.gov is the U.S. government's official web portal to all federal, state and local government web resources and services.